Time;durP1;ratioP1;P1;durP2;ratioP2;P2;SDS_P1;SDS_P2;PMS_P1;PMS_P2;Temp;Humidity;BMP_temperature;BMP_pressure;BME280_temperature;BME280_humidity;BME280_pressure;Samples;Min_cycle;Max_cycle;Signal;HPM_P1;HPM_P2
2022/01/26 00:06:24;;;;;;;22.83;2.70;;;;;;;22.45;55.06;100753.44;7309354;19;129348;-38
2022/01/26 00:08:50;;;;;;;29.52;3.15;;;;;;;22.42;55.69;100755.44;7310977;19;129854;-39
2022/01/26 00:11:15;;;;;;;30.98;3.63;;;;;;;22.40;55.30;100752.09;7309054;19;159026;-39
2022/01/26 00:13:41;;;;;;;21.42;2.78;;;;;;;22.34;55.51;100760.44;7316325;19;129290;-40
2022/01/26 00:16:12;;;;;;;19.88;2.58;;;;;;;22.29;56.07;100742.47;7315176;19;152103;-39
2022/01/26 00:18:38;;;;;;;16.58;2.38;;;;;;;22.26;56.32;100747.09;7318775;19;129649;-38
2022/01/26 00:21:17;;;;;;;19.88;2.53;;;;;;;22.13;56.04;100735.88;7318497;19;130187;-39
2022/01/26 00:24:08;;;;;;;26.63;3.10;;;;;;;22.16;56.83;100751.34;7316584;19;130502;-39
2022/01/26 00:26:59;;;;;;;20.98;2.78;;;;;;;22.12;56.22;100749.91;7316345;19;129626;-39
2022/01/26 00:29:19;;;;;;;24.80;2.92;;;;;;;22.08;56.63;100743.25;7316897;19;131232;-40
2022/01/26 00:33:07;;;;;;;38.08;4.25;;;;;;;22.05;57.10;100743.47;7318020;19;129181;-39
2022/01/26 00:40:36;;;;;;;22.63;2.80;;;;;;;22.06;58.31;100745.13;7318022;19;129599;-39
2022/01/26 00:43:15;;;;;;;27.45;3.15;;;;;;;22.06;57.94;100747.75;7317753;19;130426;-39
2022/01/26 00:45:42;;;;;;;28.08;3.05;;;;;;;21.97;57.37;100728.31;7315734;19;130466;-41
2022/01/26 00:48:09;;;;;;;21.17;2.45;;;;;;;22.09;57.59;100750.13;7317082;19;128936;-40
2022/01/26 00:50:36;;;;;;;19.52;2.47;;;;;;;22.12;58.04;100744.66;7317073;19;129208;-39
2022/01/26 00:53:03;;;;;;;17.63;2.30;;;;;;;22.09;56.89;100744.91;7317584;19;129182;-39
2022/01/26 00:55:28;;;;;;;;;;;;;;;21.95;56.45;100733.69;7316165;19;130951;-40
2022/01/26 00:57:54;;;;;;;27.97;3.23;;;;;;;22.03;56.47;100746.22;7316420;19;148457;-39
2022/01/26 01:00:22;;;;;;;26.85;3.08;;;;;;;21.96;56.67;100735.34;7314380;19;154064;-40
2022/01/26 01:02:49;;;;;;;32.70;3.78;;;;;;;21.98;56.60;100739.63;7317067;19;129617;-38
2022/01/26 01:05:22;;;;;;;36.25;4.13;;;;;;;22.01;57.24;100739.41;7315684;19;129675;-38
2022/01/26 01:07:50;;;;;;;31.83;3.53;;;;;;;21.98;57.35;100739.63;7317214;19;129879;-39
2022/01/26 01:10:19;;;;;;;24.45;2.88;;;;;;;21.98;57.33;100737.88;7318137;19;129382;-39
2022/01/26 01:12:45;;;;;;;27.88;3.30;;;;;;;22.03;56.55;100737.50;7316203;19;130258;-37
2022/01/26 01:15:13;;;;;;;42.55;4.85;;;;;;;21.98;56.93;100738.69;7315343;19;130374;-38
2022/01/26 01:17:43;;;;;;;12.38;1.95;;;;;;;21.93;56.77;100725.09;7316544;19;129003;-39
2022/01/26 01:23:13;;;;;;;28.67;3.45;;;;;;;22.23;55.99;100750.75;7315159;19;129783;-38
2022/01/26 01:30:55;;;;;;;30.83;3.78;;;;;;;22.40;55.95;100749.50;7315595;19;128845;-38
2022/01/26 01:33:27;;;;;;;23.17;3.10;;;;;;;22.37;55.71;100745.34;7316949;19;130274;-39
2022/01/26 01:35:52;;;;;;;32.30;3.80;;;;;;;22.28;55.40;100732.09;7313592;19;131095;-38
2022/01/26 01:38:20;;;;;;;34.15;3.90;;;;;;;22.34;55.48;100745.56;7314218;19;156040;-39
2022/01/26 01:40:48;;;;;;;48.25;5.10;;;;;;;22.32;56.21;100751.84;7314795;19;128852;-39
2022/01/26 01:43:15;;;;;;;26.63;3.08;;;;;;;22.26;56.00;100747.94;7314478;19;129962;-38
2022/01/26 01:45:48;;;;;;;26.17;3.05;;;;;;;22.22;56.33;100737.78;7314194;19;129179;-39
2022/01/26 01:48:18;;;;;;;33.88;4.07;;;;;;;22.16;56.23;100744.34;7315027;19;129297;-37
2022/01/26 01:50:45;;;;;;;26.67;3.25;;;;;;;22.10;56.75;100736.13;7316017;19;129101;-38
2022/01/26 01:53:12;;;;;;;19.20;2.78;;;;;;;22.07;56.82;100739.78;7314884;19;130216;-37
2022/01/26 01:55:42;;;;;;;17.75;2.13;;;;;;;22.06;57.24;100739.91;7314084;19;131011;-40
2022/01/26 01:58:09;;;;;;;24.73;3.20;;;;;;;22.03;56.70;100734.91;7315320;19;129336;-39
2022/01/26 02:00:36;;;;;;;21.65;2.35;;;;;;;22.02;56.95;100733.22;7315790;19;128911;-39
2022/01/26 02:03:03;;;;;;;17.05;2.17;;;;;;;21.90;57.29;100714.84;7315029;19;129732;-39
2022/01/26 02:05:28;;;;;;;8.15;1.50;;;;;;;22.01;57.41;100731.56;7314797;19;130353;-38
2022/01/26 02:07:53;;;;;;;40.92;4.00;;;;;;;21.98;58.03;100728.19;7315241;19;128918;-39
2022/01/26 02:10:21;;;;;;;25.67;2.97;;;;;;;22.03;57.54;100732.28;7313271;19;154622;-39
2022/01/26 02:12:50;;;;;;;31.65;3.40;;;;;;;22.05;57.77;100730.38;7315545;19;130288;-38
2022/01/26 02:15:22;;;;;;;45.10;4.53;;;;;;;22.03;58.48;100732.28;7313779;19;130795;-38
2022/01/26 02:18:16;;;;;;;35.85;3.92;;;;;;;22.05;57.70;100736.44;7315278;19;129365;-38
2022/01/26 02:20:59;;;;;;;15.52;2.55;;;;;;;22.07;58.16;100734.53;7314319;19;128995;-40
2022/01/26 02:56:30;;;;;;;31.55;3.38;;;;;;;22.39;55.80;100721.63;7311697;19;131613;-38
2022/01/26 03:06:53;;;;;;;;;;;;;;;22.18;56.04;100720.66;7311820;19;129745;-38
2022/01/26 03:09:25;;;;;;;24.70;3.15;;;;;;;22.07;55.91;100708.34;7313007;19;130572;-40
2022/01/26 03:11:50;;;;;;;32.08;3.38;;;;;;;22.12;56.29;100729.78;7314587;19;128896;-38
2022/01/26 03:14:34;;;;;;;35.42;3.53;;;;;;;22.06;56.45;100724.19;7313125;19;129378;-39
2022/01/26 03:17:08;;;;;;;28.40;3.17;;;;;;;21.92;56.45;100707.72;7309325;19;130418;-38
2022/01/26 03:28:15;;;;;;;26.77;2.95;;;;;;;21.94;58.09;100715.47;7309914;19;129546;-39
2022/01/26 03:30:26;;;;;;;19.35;2.22;;;;;;;21.95;57.98;100717.97;7311604;19;130257;-39
2022/01/26 03:35:46;;;;;;;15.02;1.95;;;;;;;21.95;58.53;100707.50;7311510;19;130057;-39
2022/01/26 03:38:19;;;;;;;29.20;3.47;;;;;;;22.01;57.81;100706.22;7311729;19;130791;-38
2022/01/26 03:40:44;;;;;;;12.52;2.08;;;;;;;22.04;57.70;100697.28;7312260;19;130345;-38
2022/01/26 03:43:10;;;;;;;22.15;2.63;;;;;;;22.03;57.94;100693.00;7313697;19;128942;-39
2022/01/26 03:45:35;;;;;;;21.42;2.55;;;;;;;22.05;58.31;100698.97;7309496;19;154259;-38
2022/01/26 03:48:00;;;;;;;37.33;4.30;;;;;;;21.94;58.61;100695.38;7310604;19;159179;-38
2022/01/26 03:50:26;;;;;;;23.27;2.80;;;;;;;21.91;58.34;100689.53;7310168;19;157081;-38
2022/01/26 03:52:52;;;;;;;34.77;3.57;;;;;;;21.88;57.02;100695.81;7312002;19;143727;-39
2022/01/26 03:55:17;;;;;;;25.85;3.15;;;;;;;22.08;56.39;100690.88;7309424;19;154728;-38
2022/01/26 03:57:42;;;;;;;25.33;3.05;;;;;;;22.38;55.80;100696.38;7310184;19;130138;-39
2022/01/26 04:00:09;;;;;;;19.77;2.05;;;;;;;22.72;55.24;100690.22;7307900;19;158308;-40
2022/01/26 04:02:35;;;;;;;19.15;2.00;;;;;;;23.06;53.45;100697.06;7312440;19;129841;-37
2022/01/26 04:05:03;;;;;;;24.60;3.00;;;;;;;23.26;53.52;100685.81;7308824;19;130205;-39
2022/01/26 04:07:29;;;;;;;13.95;1.77;;;;;;;23.44;52.98;100686.97;7311530;19;130311;-38
2022/01/26 04:10:02;;;;;;;39.00;3.55;;;;;;;23.58;51.95;100684.06;7310989;19;131264;-39
2022/01/26 04:12:27;;;;;;;19.70;2.10;;;;;;;23.70;51.83;100685.66;7312230;19;128987;-38
2022/01/26 04:14:59;;;;;;;36.38;3.65;;;;;;;23.82;51.74;100687.28;7311396;19;129561;-38
2022/01/26 04:17:24;;;;;;;22.02;2.47;;;;;;;23.89;51.39;100688.44;7307758;19;130378;-38
2022/01/26 04:19:55;;;;;;;32.22;3.40;;;;;;;24.01;50.96;100684.84;7309496;19;159304;-38
2022/01/26 04:22:26;;;;;;;21.65;2.33;;;;;;;24.03;51.11;100685.53;7310453;19;128868;-38
2022/01/26 04:24:54;;;;;;;19.65;2.25;;;;;;;24.11;50.69;100684.88;7310381;19;128924;-38
2022/01/26 04:27:26;;;;;;;28.98;3.05;;;;;;;24.11;50.38;100677.00;7310526;19;130890;-39
2022/01/26 04:29:51;;;;;;;27.60;2.85;;;;;;;24.27;50.52;100677.38;7309177;19;130403;-39
2022/01/26 04:32:17;;;;;;;25.27;2.55;;;;;;;24.29;50.61;100692.06;7311715;19;129452;-38
2022/01/26 04:34:45;;;;;;;24.13;2.73;;;;;;;24.29;50.70;100678.91;7310843;19;129205;-39
2022/01/26 04:39:45;;;;;;;24.75;2.42;;;;;;;24.36;50.61;100674.78;7309658;19;129637;-38
2022/01/26 04:42:16;;;;;;;18.63;2.10;;;;;;;24.37;49.76;100665.94;7310851;19;128936;-38
2022/01/26 04:44:48;;;;;;;27.35;2.83;;;;;;;24.41;49.88;100675.22;7309918;19;129951;-38
2022/01/26 04:47:14;;;;;;;21.70;2.33;;;;;;;24.46;50.17;100680.91;7309978;19;130439;-40
2022/01/26 04:49:39;;;;;;;54.63;4.80;;;;;;;24.40;50.29;100668.31;7307484;19;158443;-38
2022/01/26 04:52:04;;;;;;;17.55;1.90;;;;;;;24.37;50.51;100676.47;7311270;19;129052;-40
2022/01/26 04:54:30;;;;;;;18.85;1.92;;;;;;;24.35;50.60;100673.13;7309925;19;129229;-40
2022/01/26 04:56:56;;;;;;;31.23;2.83;;;;;;;24.16;50.48;100659.06;7304388;19;129292;-41
2022/01/26 04:59:21;;;;;;;17.13;2.13;;;;;;;24.20;50.55;100666.53;7313616;19;129195;-38
2022/01/26 05:01:46;;;;;;;34.30;3.43;;;;;;;24.09;50.55;100668.41;7313678;19;146878;-39
2022/01/26 05:04:11;;;;;;;24.07;2.40;;;;;;;23.95;50.90;100661.66;7314443;19;154584;-39
2022/01/26 05:06:37;;;;;;;30.90;2.93;;;;;;;23.85;51.47;100663.38;7309383;19;159418;-38
2022/01/26 05:09:03;;;;;;;21.10;2.13;;;;;;;23.77;51.70;100673.72;7314615;19;130918;-39
2022/01/26 05:11:41;;;;;;;;;;;;;;;23.64;52.31;100670.44;7317242;19;129372;-40
2022/01/26 05:14:07;;;;;;;18.23;1.98;;;;;;;23.53;51.89;100669.66;7315210;19;129273;-38
2022/01/26 05:16:32;;;;;;;14.90;1.93;;;;;;;23.42;52.67;100662.66;7314842;19;130668;-37
2022/01/26 05:18:58;;;;;;;12.63;1.65;;;;;;;23.31;52.93;100665.31;7315281;19;130303;-39
2022/01/26 05:21:25;;;;;;;35.90;3.50;;;;;;;23.20;52.90;100649.59;7316274;19;129301;-38
2022/01/26 05:23:51;;;;;;;39.75;3.67;;;;;;;23.11;53.57;100655.56;7316316;19;128908;-40
2022/01/26 05:26:17;;;;;;;34.33;3.60;;;;;;;23.01;53.76;100650.25;7313283;19;129041;-39
2022/01/26 05:28:42;;;;;;;20.83;2.35;;;;;;;22.92;53.76;100650.16;7315708;19;130294;-38
2022/01/26 05:31:07;;;;;;;26.55;2.58;;;;;;;22.85;54.12;100641.09;7315771;19;129167;-40
2022/01/26 05:33:32;;;;;;;18.20;1.88;;;;;;;22.77;54.51;100644.34;7316474;19;129427;-38
2022/01/26 05:35:58;;;;;;;25.25;2.47;;;;;;;22.70;54.73;100639.69;7313085;19;159641;-38
2022/01/26 05:38:23;;;;;;;11.95;1.65;;;;;;;22.53;55.35;100619.22;7313325;19;157594;-39
2022/01/26 05:40:50;;;;;;;37.53;3.78;;;;;;;22.48;55.53;100616.94;7314401;19;154612;-38
2022/01/26 05:43:15;;;;;;;21.48;2.42;;;;;;;22.55;55.77;100633.88;7314382;19;129292;-38
2022/01/26 05:45:42;;;;;;;15.88;2.17;;;;;;;22.49;55.92;100639.56;7314836;19;130191;-39
2022/01/26 05:48:12;;;;;;;19.00;2.13;;;;;;;22.44;56.02;100633.03;7315088;19;130607;-40
2022/01/26 05:50:38;;;;;;;19.25;2.30;;;;;;;22.42;56.09;100633.13;7316600;19;129681;-38
2022/01/26 05:53:03;;;;;;;28.55;3.03;;;;;;;22.40;56.36;100628.97;7313529;19;129168;-39
2022/01/26 05:55:29;;;;;;;31.77;3.13;;;;;;;22.33;55.81;100627.78;7312237;19;131926;-38
2022/01/26 05:57:54;;;;;;;45.28;4.25;;;;;;;22.40;56.76;100629.81;7311166;19;129184;-39
2022/01/26 06:00:19;;;;;;;27.55;2.88;;;;;;;22.37;56.62;100644.91;7315608;19;129323;-39
2022/01/26 06:02:45;;;;;;;28.02;2.90;;;;;;;22.38;56.43;100628.25;7311285;19;131617;-38
2022/01/26 06:05:10;;;;;;;44.10;4.55;;;;;;;22.34;57.14;100638.16;7311806;19;130880;-39
2022/01/26 06:07:36;;;;;;;34.63;3.17;;;;;;;22.32;56.87;100637.44;7312168;19;155356;-40
2022/01/26 06:10:01;;;;;;;36.67;3.77;;;;;;;22.31;56.79;100619.22;7310875;19;128941;-38
2022/01/26 06:12:28;;;;;;;20.83;1.98;;;;;;;22.29;56.25;100629.81;7313272;19;129080;-38
2022/01/26 06:14:53;;;;;;;39.10;3.63;;;;;;;22.28;56.63;100640.41;7313566;19;130181;-39
2022/01/26 06:17:18;;;;;;;22.70;2.53;;;;;;;22.32;55.98;100636.59;7309522;19;134774;-39
2022/01/26 06:19:44;;;;;;;27.05;2.83;;;;;;;22.36;55.50;100632.78;7311391;19;154046;-39
2022/01/26 06:22:09;;;;;;;36.55;3.40;;;;;;;22.43;55.79;100636.59;7311713;19;129766;-39
2022/01/26 06:24:34;;;;;;;27.13;2.90;;;;;;;22.44;55.59;100628.63;7312952;19;158178;-39
2022/01/26 06:26:59;;;;;;;27.17;3.13;;;;;;;22.48;55.28;100631.81;7307935;19;158350;-38
2022/01/26 06:29:25;;;;;;;6.03;1.10;;;;;;;22.50;55.02;100636.00;7313289;19;128936;-40
2022/01/26 06:31:50;;;;;;;39.00;3.78;;;;;;;22.51;55.50;100647.31;7313197;19;129504;-38
2022/01/26 06:34:16;;;;;;;25.08;2.55;;;;;;;22.52;54.86;100646.34;7310341;19;158371;-41
2022/01/26 06:36:44;;;;;;;27.37;2.77;;;;;;;22.52;55.05;100654.22;7312073;19;130372;-39
2022/01/26 06:39:13;;;;;;;45.53;4.18;;;;;;;22.48;54.98;100644.91;7310860;19;128923;-39
2022/01/26 06:41:46;;;;;;;25.92;2.63;;;;;;;22.45;55.78;100645.16;7313658;19;129439;-39
2022/01/26 06:44:25;;;;;;;35.25;3.50;;;;;;;22.41;55.69;100628.03;7311725;19;131116;-39
2022/01/26 06:51:51;;;;;;;28.65;3.15;;;;;;;22.53;54.87;100650.66;7310302;19;153241;-41
2022/01/26 06:54:16;;;;;;;;;;;;;;;22.54;54.86;100647.09;7313790;19;129131;-38
2022/01/26 06:56:41;;;;;;;26.70;2.63;;;;;;;22.61;55.29;100645.69;7307726;19;134297;-38
2022/01/26 06:59:06;;;;;;;18.67;1.90;;;;;;;22.70;54.65;100647.56;7311319;19;129059;-39
2022/01/26 07:01:32;;;;;;;29.70;2.85;;;;;;;22.74;54.62;100644.56;7308022;19;154241;-39
2022/01/26 07:03:57;;;;;;;21.85;2.40;;;;;;;22.87;54.08;100654.94;7310766;19;158750;-39
2022/01/26 07:06:22;;;;;;;34.60;3.53;;;;;;;22.89;54.43;100639.91;7308230;19;159050;-40
2022/01/26 07:08:48;;;;;;;24.67;2.60;;;;;;;23.08;53.95;100647.94;7309616;19;154305;-37
2022/01/26 07:11:13;;;;;;;25.42;2.90;;;;;;;23.18;53.67;100654.13;7312089;19;130322;-38
2022/01/26 07:13:40;;;;;;;24.15;2.45;;;;;;;23.26;53.20;100649.09;7311005;19;158680;-40
2022/01/26 07:21:33;;;;;;;25.10;2.47;;;;;;;23.52;53.14;100671.44;7311569;19;128901;-40
2022/01/26 07:23:59;;;;;;;18.40;1.98;;;;;;;23.51;52.86;100664.53;7311280;19;130193;-39
2022/01/26 07:26:29;;;;;;;26.77;2.78;;;;;;;23.61;52.70;100664.59;7308938;19;130585;-38
2022/01/26 07:28:59;;;;;;;36.85;3.50;;;;;;;23.57;52.94;100661.38;7311156;19;129239;-39
2022/01/26 07:31:25;;;;;;;74.75;6.80;;;;;;;23.54;53.27;100666.06;7308480;19;129154;-40
2022/01/26 07:33:54;;;;;;;41.70;3.85;;;;;;;23.48;53.41;100662.16;7310740;19;129506;-39
2022/01/26 07:36:21;;;;;;;28.17;2.95;;;;;;;23.38;53.91;100649.91;7308860;19;130772;-38
2022/01/26 07:38:50;;;;;;;;;;;;;;;23.43;54.17;100653.00;7311907;19;129278;-38
2022/01/26 07:41:15;;;;;;;31.50;3.15;;;;;;;23.41;54.16;100644.41;7310975;19;129161;-40
2022/01/26 07:43:40;;;;;;;28.45;2.92;;;;;;;23.44;53.84;100644.16;7309612;19;129752;-39
2022/01/26 07:46:06;;;;;;;23.85;2.28;;;;;;;23.43;54.10;100632.84;7308036;19;158861;-43
2022/01/26 07:48:32;;;;;;;23.27;2.60;;;;;;;23.46;53.92;100635.19;7310147;19;128995;-39
2022/01/26 07:50:57;;;;;;;16.33;1.80;;;;;;;23.46;53.77;100635.19;7308518;19;153476;-42
2022/01/26 07:53:22;;;;;;;40.42;3.85;;;;;;;23.48;54.22;100640.31;7308581;19;158738;-39
2022/01/26 07:55:49;;;;;;;39.40;3.90;;;;;;;23.47;54.46;100634.22;7310176;19;130700;-39
2022/01/26 07:58:15;;;;;;;24.80;2.53;;;;;;;23.45;53.78;100630.94;7308269;19;129367;-39
2022/01/26 08:00:40;;;;;;;27.30;2.40;;;;;;;23.45;54.49;100644.06;7309024;19;129500;-40
2022/01/26 08:03:05;;;;;;;29.00;2.58;;;;;;;23.46;53.91;100643.06;7309322;19;153582;-41
2022/01/26 08:05:31;;;;;;;19.95;2.13;;;;;;;23.34;54.27;100627.50;7310037;19;129468;-38
2022/01/26 08:07:56;;;;;;;33.25;3.20;;;;;;;23.40;54.35;100643.59;7309976;19;128899;-39
2022/01/26 08:10:21;;;;;;;20.25;2.20;;;;;;;23.37;54.35;100635.94;7311148;19;130276;-38
2022/01/26 08:12:49;;;;;;;20.77;2.83;;;;;;;23.40;54.14;100633.09;7309712;19;130330;-39
2022/01/26 08:15:14;;;;;;;61.40;5.95;;;;;;;23.34;55.03;100638.81;7309044;19;130322;-41
2022/01/26 08:17:39;;;;;;;39.47;3.78;;;;;;;23.31;54.92;100644.31;7309512;19;129379;-39
2022/01/26 08:20:07;;;;;;;17.55;1.90;;;;;;;23.24;54.75;100643.13;7310159;19;154324;-38
2022/01/26 08:22:33;;;;;;;18.17;2.03;;;;;;;23.18;55.06;100638.38;7311475;19;129558;-40
2022/01/26 08:24:58;;;;;;;27.70;2.53;;;;;;;23.16;55.46;100641.13;7309668;19;129143;-40
2022/01/26 08:27:26;;;;;;;29.70;2.97;;;;;;;23.12;55.92;100644.94;7308562;19;154705;-39
2022/01/26 08:29:56;;;;;;;44.28;4.15;;;;;;;23.07;55.83;100630.56;7309945;19;128853;-39
2022/01/26 08:32:22;;;;;;;25.23;2.70;;;;;;;23.03;55.72;100634.38;7311198;19;130181;-39
2022/01/26 08:34:48;;;;;;;41.00;4.13;;;;;;;23.03;56.14;100637.00;7316446;19;130425;-38
2022/01/26 08:37:13;;;;;;;25.95;2.42;;;;;;;23.06;56.13;100636.75;7312636;19;155305;-39
2022/01/26 08:39:39;;;;;;;18.77;2.22;;;;;;;22.92;56.45;100631.78;7317109;19;130091;-39
2022/01/26 08:42:06;;;;;;;23.05;2.20;;;;;;;23.03;56.26;100647.50;7316973;19;131143;-39
2022/01/26 08:44:31;;;;;;;20.88;2.05;;;;;;;23.01;56.03;100652.03;7316998;19;130634;-39
2022/01/26 08:46:56;;;;;;;28.55;2.72;;;;;;;23.01;56.37;100649.41;7313884;19;130373;-38
2022/01/26 08:49:24;;;;;;;23.33;2.47;;;;;;;23.04;56.57;100657.84;7314919;19;129807;-39
2022/01/26 08:51:51;;;;;;;32.05;3.25;;;;;;;22.97;55.68;100658.47;7316905;19;130585;-38
2022/01/26 08:54:19;;;;;;;23.55;3.35;;;;;;;22.77;51.64;100649.59;7313767;19;131020;-39
2022/01/26 08:56:45;;;;;;;44.42;5.35;;;;;;;22.73;51.09;100656.00;7312364;19;129967;-38
2022/01/26 08:59:10;;;;;;;37.38;4.05;;;;;;;22.68;50.91;100649.47;7315074;19;129072;-39
2022/01/26 09:01:35;;;;;;;24.33;3.10;;;;;;;22.75;51.65;100655.88;7313838;19;158693;-39
2022/01/26 09:04:00;;;;;;;29.80;3.07;;;;;;;22.74;52.07;100649.81;7314532;19;158394;-39
2022/01/26 09:06:26;;;;;;;20.27;2.80;;;;;;;22.67;52.91;100634.69;7312079;19;154965;-39
2022/01/26 09:08:59;;;;;;;32.10;3.67;;;;;;;22.78;52.69;100645.16;7314373;19;154609;-38
2022/01/26 09:11:25;;;;;;;22.35;2.67;;;;;;;22.77;52.88;100648.75;7315024;19;130324;-39
2022/01/26 09:13:56;;;;;;;33.58;3.80;;;;;;;22.72;53.89;100650.91;7315431;19;130318;-39
2022/01/26 09:16:24;;;;;;;26.38;3.13;;;;;;;22.74;53.63;100651.63;7313917;19;129120;-40
2022/01/26 09:18:53;;;;;;;37.25;4.13;;;;;;;22.76;53.54;100660.16;7312676;19;129132;-41
2022/01/26 09:21:19;;;;;;;29.80;3.42;;;;;;;22.71;54.18;100659.72;7315751;19;130204;-39
2022/01/26 09:23:45;;;;;;;44.07;4.40;;;;;;;22.77;53.55;100659.22;7315793;19;130462;-39
2022/01/26 09:26:11;;;;;;;21.30;2.57;;;;;;;22.82;54.05;100655.31;7314252;19;129071;-39
2022/01/26 09:28:36;;;;;;;23.45;2.90;;;;;;;22.87;54.30;100657.53;7315395;19;128849;-41
2022/01/26 09:31:02;;;;;;;20.87;2.53;;;;;;;22.92;54.25;100652.78;7316535;19;130185;-39
2022/01/26 09:33:27;;;;;;;29.42;3.42;;;;;;;22.95;53.45;100657.75;7315344;19;129598;-39
2022/01/26 09:35:52;;;;;;;40.45;3.97;;;;;;;22.97;54.19;100661.09;7314124;19;129165;-39
2022/01/26 09:38:18;;;;;;;32.30;3.50;;;;;;;23.05;54.15;100670.03;7310665;19;154866;-40
2022/01/26 09:40:46;;;;;;;36.23;3.93;;;;;;;23.11;53.40;100663.44;7314578;19;158309;-40
2022/01/26 09:43:11;;;;;;;12.68;2.22;;;;;;;23.23;53.24;100662.47;7315001;19;129329;-39
2022/01/26 09:45:36;;;;;;;22.35;2.42;;;;;;;23.25;53.68;100652.69;7313149;19;129261;-41
2022/01/26 09:48:03;;;;;;;18.63;2.15;;;;;;;23.31;53.46;100660.06;7312931;19;154939;-37
2022/01/26 09:50:29;;;;;;;;;;;;;;;23.24;54.00;100658.88;7315549;19;129489;-38
2022/01/26 09:52:55;;;;;;;18.10;2.58;;;;;;;23.22;53.09;100645.06;7314616;19;130534;-38
2022/01/26 09:55:21;;;;;;;50.95;4.60;;;;;;;23.32;53.48;100653.84;7311937;19;131496;-42
2022/01/26 09:57:46;;;;;;;24.98;2.83;;;;;;;23.29;53.83;100651.50;7312021;19;129576;-38
2022/01/26 10:00:12;;;;;;;31.33;3.13;;;;;;;23.29;53.83;100650.69;7313990;19;139930;-40
2022/01/26 10:02:39;;;;;;;21.60;2.50;;;;;;;23.17;53.69;100636.72;7313894;19;130814;-41
2022/01/26 10:05:08;;;;;;;25.70;3.22;;;;;;;23.31;53.89;100648.72;7314487;19;129914;-42
2022/01/26 10:07:52;;;;;;;35.63;4.05;;;;;;;23.33;53.63;100641.56;7314393;19;129533;-40
2022/01/26 10:10:35;;;;;;;60.40;5.50;;;;;;;23.35;53.92;100637.88;7313231;19;129581;-37
2022/01/26 10:16:10;;;;;;;37.33;3.85;;;;;;;23.38;54.06;100642.88;7311514;19;128950;-39
2022/01/26 10:18:35;;;;;;;9.77;1.60;;;;;;;23.39;54.23;100646.34;7311358;19;129425;-39
2022/01/26 10:21:03;;;;;;;19.40;2.20;;;;;;;23.39;54.11;100641.91;7312700;19;160610;-40
2022/01/26 10:23:36;;;;;;;18.70;2.20;;;;;;;23.41;54.14;100641.78;7314335;19;130516;-39
2022/01/26 10:26:06;;;;;;;23.85;2.60;;;;;;;23.40;53.77;100632.25;7312276;19;128877;-39
2022/01/26 10:28:58;;;;;;;25.65;2.80;;;;;;;23.38;54.13;100624.50;7313092;19;129183;-38
2022/01/26 10:31:30;;;;;;;26.58;3.03;;;;;;;23.33;53.89;100618.81;7313536;19;130755;-39
2022/01/26 10:34:08;;;;;;;30.48;3.45;;;;;;;23.35;53.87;100619.53;7312596;19;129634;-37
2022/01/26 10:36:56;;;;;;;38.05;4.05;;;;;;;23.18;54.66;100628.72;7307784;19;130929;-39
2022/01/26 10:39:38;;;;;;;31.13;3.67;;;;;;;23.04;54.52;100607.19;7313058;19;129173;-42
2022/01/26 10:42:09;;;;;;;24.70;3.05;;;;;;;23.03;55.33;100618.63;7313225;19;130358;-38
2022/01/26 10:45:02;;;;;;;17.60;2.28;;;;;;;22.87;54.98;100605.91;7314610;19;130612;-39
2022/01/26 10:47:35;;;;;;;30.80;3.47;;;;;;;22.88;55.17;100623.34;7312727;19;129592;-38
2022/01/26 10:50:32;;;;;;;24.15;2.63;;;;;;;22.86;55.51;100619.16;7314156;19;129004;-39
2022/01/26 10:53:10;;;;;;;14.73;2.00;;;;;;;22.82;55.70;100615.13;7310537;19;130214;-39
2022/01/26 10:55:37;;;;;;;53.75;5.45;;;;;;;22.79;55.36;100610.13;7309195;19;131428;-39
2022/01/26 10:58:03;;;;;;;;;;;;;;;22.71;56.10;100620.41;7310427;19;129274;-40
2022/01/26 11:00:34;;;;;;;10.45;1.73;;;;;;;22.74;56.20;100617.53;7311923;19;129073;-38
2022/01/26 11:03:00;;;;;;;28.08;3.13;;;;;;;22.70;55.58;100610.84;7312096;19;130503;-38
2022/01/26 11:05:26;;;;;;;11.98;2.03;;;;;;;22.67;56.32;100611.09;7309141;19;158552;-39
2022/01/26 11:07:51;;;;;;;37.10;3.80;;;;;;;22.64;55.88;100598.25;7311153;19;129142;-40
2022/01/26 11:10:18;;;;;;;26.73;3.10;;;;;;;22.64;56.35;100600.88;7312238;19;128966;-39
2022/01/26 11:12:43;;;;;;;21.27;2.42;;;;;;;22.57;55.78;100583.97;7313946;19;130761;-39
2022/01/26 11:15:11;;;;;;;53.93;5.10;;;;;;;22.54;56.29;100592.91;7311037;19;129423;-39
2022/01/26 11:17:42;;;;;;;11.73;1.83;;;;;;;22.57;56.11;100611.00;7311225;19;129171;-39
2022/01/26 11:20:29;;;;;;;21.85;2.42;;;;;;;22.59;56.90;100610.88;7311619;19;129806;-40
2022/01/26 11:23:03;;;;;;;24.98;2.78;;;;;;;22.59;56.51;100603.03;7311902;19;130185;-38
2022/01/26 11:25:38;;;;;;;16.83;2.10;;;;;;;22.60;56.31;100604.69;7309840;19;129751;-39
2022/01/26 11:28:14;;;;;;;39.45;3.72;;;;;;;22.59;56.50;100603.03;7307336;19;129336;-40
2022/01/26 11:30:40;;;;;;;19.75;2.35;;;;;;;22.48;56.22;100587.25;7311921;19;129174;-42
2022/01/26 11:33:14;;;;;;;28.23;3.00;;;;;;;22.57;57.37;100597.06;7309121;19;159107;-38
2022/01/26 11:35:44;;;;;;;18.27;2.20;;;;;;;22.49;56.36;100587.16;7310913;19;130342;-37
2022/01/26 11:46:27;;;;;;;17.73;2.00;;;;;;;22.42;57.16;100612.19;7311579;19;131484;-38
2022/01/26 11:49:08;;;;;;;29.87;3.10;;;;;;;22.45;56.80;100605.84;7311886;19;129433;-39
2022/01/26 11:51:47;;;;;;;18.25;2.20;;;;;;;22.46;56.87;100607.53;7311481;19;129096;-39
2022/01/26 11:54:18;;;;;;;29.25;3.33;;;;;;;22.46;56.53;100605.72;7311095;19;129762;-40
2022/01/26 11:56:55;;;;;;;22.02;2.67;;;;;;;22.42;56.81;100616.56;7309355;19;130353;-38
2022/01/26 11:59:22;;;;;;;29.85;3.10;;;;;;;22.42;56.06;100606.09;7311371;19;129922;-38
2022/01/26 12:01:55;;;;;;;27.55;3.17;;;;;;;22.34;56.17;100603.25;7310915;19;128986;-38
2022/01/26 12:04:20;;;;;;;28.88;3.25;;;;;;;22.42;56.73;100613.97;7311483;19;130322;-37
2022/01/26 12:06:51;;;;;;;22.58;2.88;;;;;;;22.44;55.95;100619.91;7308719;19;130625;-39
2022/01/26 12:09:17;;;;;;;21.80;2.55;;;;;;;22.44;55.77;100614.69;7314623;19;128872;-41
2022/01/26 12:11:50;;;;;;;29.42;3.03;;;;;;;22.45;56.37;100625.03;7317824;19;129568;-38
2022/01/26 12:14:19;;;;;;;25.67;2.75;;;;;;;22.43;56.14;100623.50;7319094;19;130491;-39
2022/01/26 12:16:48;;;;;;;69.00;6.65;;;;;;;22.35;55.80;100604.91;7315467;19;131968;-39
2022/01/26 12:19:36;;;;;;;27.40;3.28;;;;;;;22.42;56.53;100613.97;7314733;19;129263;-39
2022/01/26 12:36:23;;;;;;;21.17;2.50;;;;;;;22.47;55.92;100601.31;7311091;19;130530;-38
2022/01/26 12:38:57;;;;;;;27.88;3.00;;;;;;;22.56;55.32;100603.28;7312212;19;130675;-39
2022/01/26 12:41:32;;;;;;;21.55;2.55;;;;;;;22.50;55.50;100590.59;7315919;19;129775;-39
2022/01/26 12:44:00;;;;;;;21.55;2.47;;;;;;;22.60;55.15;100605.50;7317729;19;129097;-39
2022/01/26 12:46:30;;;;;;;20.70;2.45;;;;;;;22.62;55.51;100600.16;7315014;19;129138;-39
2022/01/26 12:49:10;;;;;;;25.75;2.88;;;;;;;22.56;55.22;100598.03;7315475;19;129515;-39
2022/01/26 12:51:42;;;;;;;17.25;1.95;;;;;;;22.57;55.87;100602.31;7317199;19;129045;-39
2022/01/26 12:54:07;;;;;;;31.13;3.22;;;;;;;22.53;55.87;100596.47;7316210;19;129173;-40
2022/01/26 12:56:33;;;;;;;26.80;2.75;;;;;;;22.46;55.21;100582.13;7312718;19;159011;-39
2022/01/26 12:59:07;;;;;;;19.25;2.38;;;;;;;22.54;55.63;100595.53;7314452;19;131236;-39
2022/01/26 13:01:33;;;;;;;17.10;2.15;;;;;;;22.55;55.58;100588.47;7317390;19;129174;-40
2022/01/26 13:04:01;;;;;;;27.07;3.03;;;;;;;22.56;55.43;100583.13;7316741;19;129571;-40
2022/01/26 13:06:31;;;;;;;15.18;1.98;;;;;;;22.59;55.29;100582.06;7314786;19;130309;-39
2022/01/26 13:09:01;;;;;;;32.63;3.50;;;;;;;22.60;55.67;100583.72;7313678;19;130561;-37